Terminal Aerodrome Forecast
Issued by NWS

Home | Current Version | Previous Version | Text Only | Print | Product List | Glossary On
Versions: 1 2 3 4 5 6 7 8 9 10 11 12 13 14 15 16 17 18 19 20 21 22 23 24 25 26 27 28 29 30 31 32 33 34 35
000
FTUS45 KCYS 242325
TAFAIA
TAF
KAIA 242325Z 2500/2524 23007KT P6SM BKN300
     FM251200 28007KT P6SM SCT110
     FM251700 35015G22KT P6SM SCT010 OVC040
     FM252000 36016G23KT 2SM -SN BR OVC008=

USA.gov is the U.S. government's official web portal to all federal, state and local government web resources and services.